| time (UTC) | temp C | wind direction | speed KPH | gust KPH | rain 1hr cm | rain 24hr cm | rain mn cm | humidity % | barometer mb |
| 20260504110511 | 17 | 227 | 30.6 | 41.8 | 0.00 | 0.38 | 0.36 | 64 | 1008.9 |
| 20260504100512 | 14 | 291 | 27.4 | 40.2 | 0.05 | 0.46 | 0.33 | 69 | 1009.0 |
| 20260504081518 | 16 | 293 | 30.6 | 46.7 | 0.00 | 0.53 | 0.28 | 62 | 1007.6 |
| 20260504081010 | 16 | 285 | 40.2 | 57.9 | 0.00 | 0.53 | 0.28 | 60 | 1007.7 |
| 20260504080508 | 16 | 262 | 38.6 | 57.9 | 0.00 | 0.53 | 0.28 | 60 | 1007.5 |
| 20260504050506 | 14 | 276 | 27.4 | 46.7 | 0.00 | 0.58 | 0.23 | 77 | 1007.3 |
| 20260504050012 | 14 | 238 | 30.6 | 46.7 | 0.00 | 0.58 | 0.23 | 77 | 1007.2 |
| 20260504045506 | 13 | 258 | 32.2 | 45.1 | 0.00 | 0.58 | 0.23 | 78 | 1007.2 |
| 20260504045007 | 13 | 250 | 35.4 | 51.5 | 0.00 | 0.58 | 0.23 | 78 | 1007.2 |
| 20260504044516 | 13 | 255 | 37.0 | 51.5 | 0.00 | 0.58 | 0.23 | 80 | 1007.0 |
| 20260504044011 | 12 | 255 | 30.6 | 41.8 | 0.00 | 0.61 | 0.23 | 80 | 1007.1 |
| 20260504043513 | 12 | 250 | 32.2 | 45.1 | 0.00 | 0.61 | 0.23 | 80 | 1007.1 |
| 20260504043022 | 12 | 236 | 32.2 | 49.9 | 0.03 | 0.64 | 0.23 | 79 | 1007.3 |
| 20260504042507 | 12 | 255 | 38.6 | 62.8 | 0.03 | 0.64 | 0.23 | 80 | 1007.4 |
| 20260504042010 | 12 | 246 | 43.5 | 62.8 | 0.03 | 0.64 | 0.23 | 81 | 1007.5 |
| 20260504041503 | 12 | 231 | 38.6 | 51.5 | 0.03 | 0.64 | 0.23 | 78 | 1007.9 |
| 20260504041004 | 13 | 248 | 35.4 | 49.9 | 0.05 | 0.64 | 0.23 | 75 | 1007.5 |
| 20260504040503 | 13 | 240 | 37.0 | 46.7 | 0.08 | 0.64 | 0.23 | 74 | 1007.3 |
| 20260504040010 | 13 | 243 | 30.6 | 48.3 | 0.13 | 0.64 | 0.23 | 74 | 1007.0 |
| 20260504035507 | 13 | 229 | 35.4 | 48.3 | 0.13 | 0.64 | 0.23 | 74 | 1007.2 |
| 20260504035007 | 12 | 257 | 30.6 | 48.3 | 0.13 | 0.66 | 0.23 | 77 | 1007.4 |
| 20260504034518 | 12 | 252 | 29.0 | 67.6 | 0.13 | 0.66 | 0.23 | 79 | 1007.6 |
| 20260504034007 | 12 | 252 | 27.4 | 67.6 | 0.13 | 0.66 | 0.23 | 78 | 1007.8 |
| 20260504033511 | 13 | 290 | 37.0 | 48.3 | 0.10 | 0.64 | 0.20 | 76 | 1008.0 |
| 20260504033022 | 13 | 260 | 38.6 | 48.3 | 0.08 | 0.64 | 0.18 | 75 | 1007.6 |
| 20260504032507 | 12 | 275 | 27.4 | 45.1 | 0.08 | 0.64 | 0.18 | 78 | 1007.3 |
| 20260504032012 | 12 | 272 | 33.8 | 46.7 | 0.08 | 0.64 | 0.18 | 78 | 1007.6 |
| 20260504031524 | 12 | 284 | 32.2 | 53.1 | 0.08 | 0.64 | 0.18 | 80 | 1007.6 |
| 20260504031007 | 12 | 271 | 40.2 | 53.1 | 0.08 | 0.61 | 0.18 | 79 | 1007.7 |
| 20260504030510 | 13 | 271 | 38.6 | 53.1 | 0.05 | 0.58 | 0.15 | 78 | 1007.5 |
| 20260504030014 | 13 | 293 | 37.0 | 46.7 | 0.00 | 0.53 | 0.08 | 74 | 1007.7 |
| 20260504025503 | 14 | 279 | 29.0 | 46.7 | 0.00 | 0.53 | 0.08 | 74 | 1007.5 |
| 20260504025003 | 13 | 273 | 25.7 | 40.2 | 0.00 | 0.53 | 0.08 | 76 | 1007.5 |
| 20260504024512 | 13 | 255 | 27.4 | 46.7 | 0.00 | 0.53 | 0.08 | 75 | 1007.5 |
| 20260504024007 | 13 | 245 | 35.4 | 46.7 | 0.00 | 0.53 | 0.08 | 74 | 1007.7 |
| 20260504023506 | 13 | 257 | 30.6 | 46.7 | 0.00 | 0.53 | 0.08 | 73 | 1007.8 |
| 20260504023018 | 13 | 250 | 22.5 | 32.2 | 0.00 | 0.53 | 0.08 | 73 | 1007.6 |
| 20260504022511 | 13 | 245 | 17.7 | 24.1 | 0.00 | 0.53 | 0.08 | 73 | 1007.5 |
| 20260504022010 | 13 | 279 | 17.7 | 24.1 | 0.00 | 0.53 | 0.08 | 74 | 1007.5 |
| 20260504021526 | 13 | 272 | 17.7 | 27.4 | 0.00 | 0.53 | 0.08 | 74 | 1007.4 |
| 20260504021006 | 13 | 287 | 17.7 | 35.4 | 0.00 | 0.53 | 0.08 | 74 | 1007.6 |
| 20260504020508 | 13 | 281 | 20.9 | 37.0 | 0.00 | 0.53 | 0.08 | 73 | 1007.7 |
| 20260504020026 | 13 | 272 | 27.4 | 40.2 | 0.00 | 0.53 | 0.08 | 73 | 1007.6 |
| 20260504015509 | 13 | 272 | 30.6 | 74.0 | 0.00 | 0.53 | 0.08 | 73 | 1007.7 |
| 20260504015013 | 12 | 264 | 40.2 | 74.0 | 0.00 | 0.53 | 0.08 | 73 | 1007.9 |
| 20260504014508 | 13 | 240 | 40.2 | 51.5 | 0.08 | 0.53 | 0.08 | 72 | 1008.0 |
| 20260504014005 | 13 | 250 | 27.4 | 37.0 | 0.08 | 0.53 | 0.08 | 72 | 1007.7 |
| 20260504013506 | 12 | 244 | 25.7 | 37.0 | 0.08 | 0.53 | 0.08 | 73 | 1007.8 |
| 20260504013016 | 12 | 254 | 27.4 | 48.3 | 0.08 | 0.53 | 0.08 | 75 | 1008.0 |
| 20260504012507 | 12 | 258 | 35.4 | 48.3 | 0.08 | 0.53 | 0.08 | 75 | 1008.1 |
| 20260504012008 | 12 | 255 | 25.7 | 37.0 | 0.08 | 0.53 | 0.08 | 75 | 1008.1 |
| 20260504011519 | 12 | 255 | 27.4 | 37.0 | 0.08 | 0.53 | 0.08 | 75 | 1008.2 |
| 20260504011012 | 12 | 243 | 29.0 | 37.0 | 0.08 | 0.53 | 0.08 | 74 | 1008.2 |
| 20260504010510 | 12 | 249 | 30.6 | 37.0 | 0.08 | 0.53 | 0.08 | 75 | 1008.2 |
| 20260504010024 | 12 | 224 | 27.4 | 53.1 | 0.08 | 0.53 | 0.08 | 76 | 1008.1 |
| 20260504005507 | 11 | 230 | 27.4 | 82.1 | 0.08 | 0.53 | 0.08 | 77 | 1008.0 |
| 20260504005014 | 11 | 253 | 41.8 | 82.1 | 0.08 | 0.53 | 0.08 | 78 | 1008.2 |
| 20260504004528 | 13 | 256 | 62.8 | 78.9 | 0.00 | 0.46 | 0.00 | 72 | 1008.3 |
| 20260504004010 | 15 | 264 | 35.4 | 51.5 | 0.00 | 0.46 | 0.00 | 65 | 1008.0 |
| 20260504003513 | 15 | 248 | 32.2 | 48.3 | 0.00 | 0.46 | 0.00 | 65 | 1007.9 |
| 20260504003019 | 15 | 248 | 35.4 | 53.1 | 0.00 | 0.46 | 0.00 | 64 | 1008.0 |
| 20260504002505 | 14 | 240 | 33.8 | 53.1 | 0.00 | 0.46 | 0.00 | 66 | 1008.1 |
| 20260504002007 | 14 | 272 | 32.2 | 41.8 | 0.00 | 0.46 | 0.00 | 68 | 1008.2 |
| 20260504001516 | 13 | 286 | 24.1 | 32.2 | 0.00 | 0.46 | 0.00 | 68 | 1008.2 |
| 20260504001006 | 13 | 244 | 20.9 | 32.2 | 0.00 | 0.46 | 0.00 | 69 | 1008.2 |
| 20260504000507 | 13 | 250 | 22.5 | 30.6 | 0.00 | 0.46 | 0.00 | 69 | 1008.4 |
| 20260504000022 | 13 | 257 | 20.9 | 33.8 | 0.00 | 0.46 | 0.00 | 69 | 1008.4 |
| 20260503235507 | 13 | 295 | 22.5 | 33.8 | 0.00 | 0.46 | 0.00 | 67 | 1008.5 |
| 20260503235009 | 13 | 249 | 22.5 | 45.1 | 0.00 | 0.46 | 0.00 | 67 | 1008.4 |
| 20260503234523 | 13 | 254 | 29.0 | 48.3 | 0.00 | 0.46 | 0.00 | 65 | 1008.4 |
| 20260503234009 | 13 | 247 | 38.6 | 48.3 | 0.00 | 0.46 | 0.00 | 68 | 1008.6 |
| 20260503233512 | 13 | 289 | 11.3 | 19.3 | 0.00 | 0.46 | 0.00 | 68 | 1008.5 |
| 20260503233035 | 13 | 281 | 14.5 | 19.3 | 0.00 | 0.46 | 0.00 | 67 | 1008.6 |
| 20260503232510 | 13 | 278 | 9.7 | 20.9 | 0.00 | 0.46 | 0.00 | 68 | 1008.6 |
| 20260503232010 | 13 | 271 | 12.9 | 20.9 | 0.00 | 0.46 | 0.00 | 67 | 1008.8 |
| 20260503231522 | 13 | 257 | 17.7 | 22.5 | 0.00 | 0.46 | 0.00 | 66 | 1008.9 |
| 20260503231007 | 13 | 235 | 17.7 | 22.5 | 0.00 | 0.46 | 0.00 | 66 | 1009.0 |
| 20260503230509 | 13 | 268 | 12.9 | 20.9 | 0.00 | 0.46 | 0.00 | 65 | 1009.0 |
| 20260503230020 | 13 | 256 | 11.3 | 17.7 | 0.00 | 0.46 | 0.00 | 66 | 1009.1 |
| 20260503225507 | 13 | 248 | 12.9 | 22.5 | 0.00 | 0.46 | 0.00 | 67 | 1009.1 |
| 20260503225014 | 13 | 234 | 16.1 | 25.7 | 0.00 | 0.46 | 0.00 | 67 | 1009.3 |
| 20260503224528 | 13 | 250 | 17.7 | 25.7 | 0.00 | 0.46 | 0.00 | 67 | 1009.2 |
| 20260503224012 | 13 | 257 | 14.5 | 29.0 | 0.00 | 0.46 | 0.00 | 68 | 1009.2 |
| 20260503223510 | 13 | 243 | 16.1 | 29.0 | 0.00 | 0.46 | 0.00 | 67 | 1009.2 |
| 20260503223027 | 13 | 243 | 17.7 | 22.5 | 0.00 | 0.46 | 0.00 | 68 | 1009.2 |
| 20260503222508 | 13 | 248 | 16.1 | 20.9 | 0.00 | 0.46 | 0.00 | 70 | 1009.3 |
| 20260503222013 | 13 | 240 | 16.1 | 20.9 | 0.00 | 0.46 | 0.00 | 69 | 1009.4 |
| 20260503221533 | 13 | 247 | 16.1 | 20.9 | 0.00 | 0.46 | 0.00 | 69 | 1009.4 |
| 20260503221010 | 13 | 240 | 16.1 | 20.9 | 0.00 | 0.46 | 0.00 | 70 | 1009.5 |
| 20260503220513 | 13 | 251 | 16.1 | 22.5 | 0.00 | 0.46 | 0.00 | 69 | 1009.5 |
| 20260503220020 | 13 | 254 | 17.7 | 25.7 | 0.00 | 0.46 | 0.00 | 69 | 1009.5 |
| 20260503215506 | 13 | 262 | 19.3 | 25.7 | 0.00 | 0.46 | 0.00 | 68 | 1009.5 |
| 20260503215006 | 13 | 245 | 19.3 | 24.1 | 0.00 | 0.46 | 0.00 | 68 | 1009.5 |
| 20260503214523 | 13 | 249 | 19.3 | 24.1 | 0.00 | 0.46 | 0.00 | 69 | 1009.6 |
| 20260503214009 | 12 | 255 | 17.7 | 30.6 | 0.00 | 0.46 | 0.00 | 69 | 1009.6 |
| 20260503213511 | 13 | 237 | 20.9 | 37.0 | 0.00 | 0.46 | 0.00 | 69 | 1009.6 |
| 20260503213026 | 13 | 237 | 22.5 | 41.8 | 0.00 | 0.46 | 0.00 | 68 | 1009.7 |
| 20260503212515 | 13 | 269 | 27.4 | 46.7 | 0.00 | 0.46 | 0.00 | 68 | 1009.7 |
| 20260503212014 | 13 | 240 | 33.8 | 54.7 | 0.00 | 0.46 | 0.00 | 68 | 1009.8 |
| 20260503211528 | 13 | 266 | 45.1 | 62.8 | 0.00 | 0.46 | 0.00 | 65 | 1009.9 |
| 20260503211010 | 13 | 267 | 40.2 | 62.8 | 0.00 | 0.46 | 0.00 | 63 | 1009.9 |
| 20260503210508 | 14 | 269 | 22.5 | 29.0 | 0.00 | 0.46 | 0.00 | 63 | 1009.8 |
| 20260503210032 | 14 | 233 | 17.7 | 29.0 | 0.00 | 0.46 | 0.00 | 63 | 1009.5 |
| 20260503205508 | 14 | 245 | 19.3 | 27.4 | 0.00 | 0.46 | 0.46 | 64 | 1009.6 |
| 20260503205013 | 14 | 248 | 17.7 | 24.1 | 0.00 | 0.46 | 0.46 | 65 | 1009.6 |
| 20260503204519 | 13 | 248 | 19.3 | 24.1 | 0.00 | 0.46 | 0.46 | 65 | 1009.6 |
| 20260503204009 | 13 | 258 | 17.7 | 24.1 | 0.00 | 0.46 | 0.46 | 65 | 1009.6 |
| 20260503203515 | 13 | 257 | 16.1 | 20.9 | 0.00 | 0.46 | 0.46 | 66 | 1009.6 |
| 20260503203026 | 13 | 240 | 16.1 | 20.9 | 0.00 | 0.46 | 0.46 | 66 | 1009.7 |
| 20260503202509 | 13 | 248 | 14.5 | 17.7 | 0.00 | 0.46 | 0.46 | 66 | 1009.7 |
| 20260503202011 | 13 | 243 | 12.9 | 16.1 | 0.00 | 0.46 | 0.46 | 67 | 1009.8 |
| 20260503201524 | 13 | 248 | 14.5 | 17.7 | 0.00 | 0.46 | 0.46 | 66 | 1009.8 |
| 20260503201014 | 13 | 257 | 14.5 | 17.7 | 0.00 | 0.46 | 0.46 | 66 | 1009.8 |
| 20260503200514 | 13 | 252 | 12.9 | 16.1 | 0.00 | 0.46 | 0.46 | 66 | 1009.8 |
| 20260503200026 | 13 | 255 | 12.9 | 16.1 | 0.00 | 0.46 | 0.46 | 66 | 1009.7 |
| 20260503195510 | 13 | 255 | 12.9 | 17.7 | 0.00 | 0.46 | 0.46 | 66 | 1009.7 |
| 20260503195013 | 13 | 246 | 14.5 | 17.7 | 0.00 | 0.46 | 0.46 | 66 | 1009.8 |
| 20260503194530 | 13 | 250 | 14.5 | 19.3 | 0.00 | 0.46 | 0.46 | 66 | 1009.9 |
| 20260503194009 | 13 | 255 | 16.1 | 22.5 | 0.00 | 0.46 | 0.46 | 65 | 1010.0 |
| 20260503193514 | 13 | 260 | 16.1 | 22.5 | 0.00 | 0.46 | 0.46 | 66 | 1010.0 |
| 20260503193017 | 13 | 274 | 14.5 | 22.5 | 0.00 | 0.46 | 0.46 | 66 | 1010.0 |
| 20260503192509 | 13 | 259 | 17.7 | 22.5 | 0.00 | 0.46 | 0.46 | 66 | 1010.0 |
| 20260503192006 | 13 | 248 | 19.3 | 22.5 | 0.00 | 0.46 | 0.46 | 66 | 1009.9 |
| 20260503191524 | 13 | 252 | 19.3 | 24.1 | 0.00 | 0.46 | 0.46 | 66 | 1009.9 |
| 20260503191008 | 13 | 257 | 19.3 | 24.1 | 0.00 | 0.46 | 0.46 | 66 | 1009.8 |
| 20260503190511 | 13 | 250 | 17.7 | 22.5 | 0.00 | 0.46 | 0.46 | 66 | 1009.8 |
| 20260503190026 | 13 | 248 | 17.7 | 22.5 | 0.00 | 0.46 | 0.46 | 66 | 1009.6 |
| 20260503185510 | 13 | 253 | 17.7 | 24.1 | 0.00 | 0.46 | 0.46 | 66 | 1009.5 |
| 20260503185009 | 13 | 245 | 19.3 | 25.7 | 0.00 | 0.46 | 0.46 | 65 | 1009.6 |
| 20260503184526 | 14 | 243 | 20.9 | 25.7 | 0.00 | 0.46 | 0.46 | 65 | 1009.5 |
| 20260503184011 | 14 | 264 | 19.3 | 25.7 | 0.00 | 0.46 | 0.46 | 65 | 1009.5 |
| 20260503183515 | 14 | 258 | 20.9 | 30.6 | 0.00 | 0.46 | 0.46 | 64 | 1009.5 |
| 20260503183027 | 14 | 258 | 22.5 | 30.6 | 0.00 | 0.46 | 0.46 | 64 | 1009.4 |
| 20260503182510 | 14 | 255 | 24.1 | 32.2 | 0.00 | 0.46 | 0.46 | 64 | 1009.3 |
| 20260503182014 | 14 | 242 | 24.1 | 32.2 | 0.00 | 0.46 | 0.46 | 64 | 1009.4 |
| 20260503181519 | 14 | 250 | 22.5 | 29.0 | 0.00 | 0.46 | 0.46 | 64 | 1009.3 |
| 20260503181007 | 14 | 245 | 20.9 | 33.8 | 0.00 | 0.46 | 0.46 | 64 | 1009.3 |
| 20260503180509 | 15 | 267 | 24.1 | 33.8 | 0.00 | 0.46 | 0.46 | 63 | 1009.2 |
| 20260503180024 | 14 | 253 | 22.5 | 29.0 | 0.00 | 0.46 | 0.46 | 64 | 1009.2 |
| 20260503175512 | 15 | 243 | 22.5 | 29.0 | 0.00 | 0.46 | 0.46 | 63 | 1009.2 |
| 20260503175011 | 15 | 247 | 20.9 | 29.0 | 0.00 | 0.46 | 0.46 | 63 | 1009.1 |
| 20260503174531 | 15 | 245 | 20.9 | 27.4 | 0.00 | 0.46 | 0.46 | 63 | 1009.1 |
| 20260503174009 | 15 | 248 | 20.9 | 30.6 | 0.00 | 0.46 | 0.46 | 62 | 1009.1 |
| 20260503173510 | 15 | 240 | 24.1 | 32.2 | 0.00 | 0.46 | 0.46 | 61 | 1009.0 |
| 20260503173034 | 15 | 251 | 20.9 | 33.8 | 0.00 | 0.46 | 0.46 | 61 | 1009.0 |
| 20260503172514 | 15 | 250 | 27.4 | 33.8 | 0.00 | 0.46 | 0.46 | 61 | 1008.9 |
| 20260503172013 | 15 | 270 | 22.5 | 33.8 | 0.00 | 0.46 | 0.46 | 61 | 1008.8 |
| 20260503171534 | 15 | 266 | 24.1 | 33.8 | 0.00 | 0.46 | 0.46 | 62 | 1008.7 |
| 20260503171008 | 15 | 240 | 25.7 | 33.8 | 0.00 | 0.46 | 0.46 | 63 | 1008.6 |
| 20260503170509 | 15 | 255 | 19.3 | 33.8 | 0.00 | 0.46 | 0.46 | 65 | 1008.6 |
| 20260503151009 | 17 | 264 | 32.2 | 40.2 | 0.00 | 0.46 | 0.46 | 57 | 1007.5 |
| 20260503150511 | 17 | 244 | 25.7 | 37.0 | 0.00 | 0.46 | 0.46 | 61 | 1007.4 |
| 20260503131010 | 16 | 309 | 8.0 | 9.7 | 0.00 | 0.46 | 0.46 | 80 | 1007.4 |
| 20260503130511 | 16 | 292 | 8.0 | 11.3 | 0.00 | 0.46 | 0.46 | 81 | 1007.5 |